Genoa Cristoforo Colombo Airport


Codes: LIMJ/GOA
Name: Genoa Cristoforo Colombo Airport
City: Genova
Country: Italy
Elevation: 13 ft.
Website:
Wikipedia:

Photos at Genoa Cristoforo Colombo Airport


   Photos courtesy of SpottingLog. You can add your own sightings and photos by signing up for a free trial today.



No photos found.

Weather at Genoa Cristoforo Colombo Airport


Time (UTC)DescriptionTempratureWindCloud coverageVisibilityPressureHumidity
16-Jun-2024 03:00Light Rain19°C7 mph, SE33%10000m1011hPa83%
16-Jun-2024 06:00Light Rain20°C7 mph, SE67%10000m1011hPa84%
16-Jun-2024 09:00Light Rain20°C9 mph, SE96%10000m1012hPa85%
16-Jun-2024 12:00Light Rain21°C11 mph, SE77%10000m1012hPa75%
16-Jun-2024 15:00Scattered Clouds22°C9 mph, SE26%10000m1012hPa69%
16-Jun-2024 18:00Few Clouds20°C7 mph, SE14%10000m1013hPa84%
16-Jun-2024 21:00Few Clouds18°C7 mph, E17%10000m1015hPa93%
17-Jun-2024 00:00Few Clouds17°C4 mph, E22%10000m1016hPa90%
17-Jun-2024 03:00Few Clouds16°C4 mph, NE24%10000m1016hPa89%
17-Jun-2024 06:00Scattered Clouds19°C2 mph, E33%10000m1017hPa80%
17-Jun-2024 09:00Clear Sky23°C7 mph, SE6%10000m1017hPa66%
17-Jun-2024 12:00Clear Sky23°C7 mph, SE9%10000m1017hPa66%
17-Jun-2024 15:00Few Clouds22°C4 mph, S12%10000m1017hPa69%
17-Jun-2024 18:00Clear Sky21°C2 mph, SE10%10000m1017hPa78%
17-Jun-2024 21:00Scattered Clouds19°C4 mph, N37%10000m1018hPa80%
18-Jun-2024 00:00Broken Clouds19°C4 mph, N66%10000m1018hPa70%
18-Jun-2024 03:00Few Clouds19°C7 mph, N11%10000m1018hPa65%
18-Jun-2024 06:00Few Clouds22°C4 mph, N11%10000m1018hPa67%
18-Jun-2024 09:00Clear Sky26°C2 mph, SE10%10000m1018hPa53%
18-Jun-2024 12:00Scattered Clouds27°C4 mph, S30%10000m1018hPa48%
18-Jun-2024 15:00Scattered Clouds26°C2 mph, SE48%10000m1018hPa42%
18-Jun-2024 18:00Broken Clouds23°C2 mph, NE62%10000m1018hPa58%
18-Jun-2024 21:00Broken Clouds22°C4 mph, N82%10000m1018hPa52%
19-Jun-2024 00:00Broken Clouds21°C4 mph, N73%10000m1018hPa56%
19-Jun-2024 03:00Scattered Clouds21°C7 mph, N30%10000m1018hPa59%
19-Jun-2024 06:00Few Clouds23°C7 mph, N19%10000m1018hPa66%
19-Jun-2024 09:00Few Clouds27°C2 mph, N18%10000m1018hPa50%
19-Jun-2024 12:00Clear Sky27°C7 mph, S10%10000m1019hPa51%
19-Jun-2024 15:00Clear Sky27°C2 mph, SE0%10000m1018hPa48%
19-Jun-2024 18:00Clear Sky25°C2 mph, NE4%10000m1018hPa63%
19-Jun-2024 21:00Scattered Clouds23°C2 mph, N27%10000m1019hPa61%
20-Jun-2024 00:00Few Clouds23°C4 mph, N16%10000m1019hPa62%
20-Jun-2024 03:00Few Clouds22°C7 mph, N14%10000m1018hPa71%
20-Jun-2024 06:00Scattered Clouds24°C7 mph, N45%10000m1018hPa78%
20-Jun-2024 09:00Scattered Clouds29°C2 mph, N37%10000m1017hPa64%
20-Jun-2024 12:00Scattered Clouds32°C2 mph, S47%10000m1017hPa55%
20-Jun-2024 15:00Overcast Clouds30°C2 mph, S95%10000m1016hPa60%
20-Jun-2024 18:00Overcast Clouds27°C2 mph, SW98%10000m1014hPa74%
20-Jun-2024 21:00Overcast Clouds24°C7 mph, NE99%10000m1016hPa74%
21-Jun-2024 00:00Light Rain23°C4 mph, N89%10000m1015hPa74%